sensor_id;sensor_type;location;lat;lon;timestamp;P1;durP1;ratioP1;P2;durP2;ratioP2
38162;SDS011;23977;53.078;18.248;2022-08-19T00:00:24;20.33;;;18.05;;
38162;SDS011;23977;53.078;18.248;2022-08-19T00:03:25;21.98;;;18.80;;
38162;SDS011;23977;53.078;18.248;2022-08-19T00:05:52;20.30;;;18.20;;
38162;SDS011;23977;53.078;18.248;2022-08-19T00:08:19;21.55;;;18.13;;
38162;SDS011;23977;53.078;18.248;2022-08-19T00:10:50;19.80;;;17.80;;
38162;SDS011;23977;53.078;18.248;2022-08-19T00:13:17;20.98;;;18.67;;
38162;SDS011;23977;53.078;18.248;2022-08-19T00:23:40;22.27;;;19.55;;
38162;SDS011;23977;53.078;18.248;2022-08-19T00:26:07;22.38;;;19.98;;
38162;SDS011;23977;53.078;18.248;2022-08-19T00:28:34;22.63;;;19.83;;
38162;SDS011;23977;53.078;18.248;2022-08-19T00:31:02;21.65;;;19.30;;
38162;SDS011;23977;53.078;18.248;2022-08-19T00:33:30;21.23;;;18.58;;
38162;SDS011;23977;53.078;18.248;2022-08-19T00:36:00;21.88;;;19.25;;
38162;SDS011;23977;53.078;18.248;2022-08-19T00:38:27;24.00;;;20.35;;
38162;SDS011;23977;53.078;18.248;2022-08-19T00:40:54;21.92;;;19.70;;
38162;SDS011;23977;53.078;18.248;2022-08-19T00:43:22;21.55;;;19.25;;
38162;SDS011;23977;53.078;18.248;2022-08-19T00:45:48;21.52;;;19.42;;
38162;SDS011;23977;53.078;18.248;2022-08-19T00:48:15;22.08;;;19.83;;
38162;SDS011;23977;53.078;18.248;2022-08-19T00:50:42;21.85;;;19.65;;
38162;SDS011;23977;53.078;18.248;2022-08-19T00:53:09;23.08;;;20.45;;
38162;SDS011;23977;53.078;18.248;2022-08-19T00:58:07;22.67;;;20.38;;
38162;SDS011;23977;53.078;18.248;2022-08-19T01:00:34;22.88;;;20.58;;
38162;SDS011;23977;53.078;18.248;2022-08-19T01:03:04;24.95;;;21.55;;
38162;SDS011;23977;53.078;18.248;2022-08-19T01:05:30;25.02;;;22.63;;
38162;SDS011;23977;53.078;18.248;2022-08-19T01:07:59;24.52;;;21.88;;
38162;SDS011;23977;53.078;18.248;2022-08-19T01:10:27;23.08;;;20.60;;
38162;SDS011;23977;53.078;18.248;2022-08-19T01:15:20;26.90;;;22.63;;
38162;SDS011;23977;53.078;18.248;2022-08-19T01:18:08;23.42;;;20.90;;
38162;SDS011;23977;53.078;18.248;2022-08-19T01:20:35;24.83;;;22.20;;
38162;SDS011;23977;53.078;18.248;2022-08-19T01:23:00;23.98;;;21.23;;
38162;SDS011;23977;53.078;18.248;2022-08-19T01:28:12;26.48;;;23.77;;
38162;SDS011;23977;53.078;18.248;2022-08-19T01:30:39;30.08;;;23.70;;
38162;SDS011;23977;53.078;18.248;2022-08-19T01:33:05;24.05;;;21.45;;
38162;SDS011;23977;53.078;18.248;2022-08-19T01:35:32;25.02;;;20.63;;
38162;SDS011;23977;53.078;18.248;2022-08-19T01:38:02;26.48;;;23.10;;
38162;SDS011;23977;53.078;18.248;2022-08-19T01:43:07;26.23;;;22.67;;
38162;SDS011;23977;53.078;18.248;2022-08-19T01:45:46;27.92;;;24.15;;
38162;SDS011;23977;53.078;18.248;2022-08-19T01:48:12;26.85;;;22.88;;
38162;SDS011;23977;53.078;18.248;2022-08-19T01:53:13;23.52;;;20.95;;
38162;SDS011;23977;53.078;18.248;2022-08-19T01:55:40;22.35;;;19.95;;
38162;SDS011;23977;53.078;18.248;2022-08-19T01:58:13;22.95;;;20.42;;
38162;SDS011;23977;53.078;18.248;2022-08-19T02:00:39;22.77;;;20.45;;
38162;SDS011;23977;53.078;18.248;2022-08-19T02:03:06;24.02;;;20.90;;
38162;SDS011;23977;53.078;18.248;2022-08-19T02:05:32;24.42;;;21.83;;
38162;SDS011;23977;53.078;18.248;2022-08-19T02:07:57;25.70;;;22.90;;
38162;SDS011;23977;53.078;18.248;2022-08-19T02:10:25;26.48;;;23.48;;
38162;SDS011;23977;53.078;18.248;2022-08-19T02:12:51;25.52;;;22.83;;
38162;SDS011;23977;53.078;18.248;2022-08-19T02:15:17;24.88;;;22.17;;
38162;SDS011;23977;53.078;18.248;2022-08-19T02:17:45;25.83;;;23.17;;
38162;SDS011;23977;53.078;18.248;2022-08-19T02:20:11;28.27;;;23.05;;
38162;SDS011;23977;53.078;18.248;2022-08-19T02:22:38;25.77;;;23.08;;
38162;SDS011;23977;53.078;18.248;2022-08-19T02:31:00;28.02;;;25.02;;
38162;SDS011;23977;53.078;18.248;2022-08-19T02:33:27;27.33;;;24.23;;
38162;SDS011;23977;53.078;18.248;2022-08-19T02:35:53;29.33;;;26.05;;
38162;SDS011;23977;53.078;18.248;2022-08-19T02:38:19;29.67;;;23.98;;
38162;SDS011;23977;53.078;18.248;2022-08-19T02:40:57;25.48;;;22.50;;
38162;SDS011;23977;53.078;18.248;2022-08-19T02:43:24;26.30;;;23.40;;
38162;SDS011;23977;53.078;18.248;2022-08-19T02:45:49;24.63;;;21.73;;
38162;SDS011;23977;53.078;18.248;2022-08-19T02:48:17;24.70;;;21.98;;
38162;SDS011;23977;53.078;18.248;2022-08-19T02:50:43;25.88;;;23.17;;
38162;SDS011;23977;53.078;18.248;2022-08-19T02:53:09;27.08;;;23.17;;
38162;SDS011;23977;53.078;18.248;2022-08-19T02:55:36;24.77;;;22.15;;
38162;SDS011;23977;53.078;18.248;2022-08-19T02:58:02;29.15;;;24.00;;
38162;SDS011;23977;53.078;18.248;2022-08-19T03:00:27;28.08;;;23.73;;
38162;SDS011;23977;53.078;18.248;2022-08-19T03:02:53;28.58;;;23.80;;
38162;SDS011;23977;53.078;18.248;2022-08-19T03:05:19;25.27;;;22.55;;
38162;SDS011;23977;53.078;18.248;2022-08-19T03:07:45;25.75;;;22.33;;
38162;SDS011;23977;53.078;18.248;2022-08-19T03:10:12;25.17;;;22.65;;
38162;SDS011;23977;53.078;18.248;2022-08-19T03:12:39;31.88;;;25.58;;
38162;SDS011;23977;53.078;18.248;2022-08-19T03:15:05;28.15;;;24.90;;
38162;SDS011;23977;53.078;18.248;2022-08-19T03:17:33;29.20;;;25.83;;
38162;SDS011;23977;53.078;18.248;2022-08-19T03:19:59;31.20;;;25.80;;
38162;SDS011;23977;53.078;18.248;2022-08-19T03:22:25;29.30;;;26.20;;
38162;SDS011;23977;53.078;18.248;2022-08-19T03:24:51;33.55;;;28.00;;
38162;SDS011;23977;53.078;18.248;2022-08-19T03:27:17;27.88;;;24.88;;
38162;SDS011;23977;53.078;18.248;2022-08-19T03:32:18;32.03;;;25.30;;
38162;SDS011;23977;53.078;18.248;2022-08-19T03:34:44;29.55;;;24.92;;
38162;SDS011;23977;53.078;18.248;2022-08-19T03:37:10;30.70;;;25.90;;
38162;SDS011;23977;53.078;18.248;2022-08-19T03:39:40;27.98;;;23.98;;
38162;SDS011;23977;53.078;18.248;2022-08-19T03:42:06;27.33;;;24.40;;
38162;SDS011;23977;53.078;18.248;2022-08-19T03:44:32;28.35;;;24.02;;
38162;SDS011;23977;53.078;18.248;2022-08-19T03:49:37;26.90;;;23.40;;
38162;SDS011;23977;53.078;18.248;2022-08-19T03:52:03;26.85;;;23.63;;
38162;SDS011;23977;53.078;18.248;2022-08-19T03:54:32;29.17;;;23.00;;
38162;SDS011;23977;53.078;18.248;2022-08-19T03:56:58;25.80;;;23.02;;
38162;SDS011;23977;53.078;18.248;2022-08-19T03:59:30;25.52;;;22.83;;
38162;SDS011;23977;53.078;18.248;2022-08-19T04:01:58;29.45;;;23.27;;
38162;SDS011;23977;53.078;18.248;2022-08-19T04:04:24;28.00;;;23.13;;
38162;SDS011;23977;53.078;18.248;2022-08-19T04:06:57;26.40;;;22.27;;
38162;SDS011;23977;53.078;18.248;2022-08-19T04:09:31;29.33;;;22.55;;
38162;SDS011;23977;53.078;18.248;2022-08-19T04:11:57;27.48;;;22.85;;
38162;SDS011;23977;53.078;18.248;2022-08-19T04:14:24;25.52;;;21.35;;
38162;SDS011;23977;53.078;18.248;2022-08-19T04:16:51;24.17;;;20.92;;
38162;SDS011;23977;53.078;18.248;2022-08-19T04:19:19;25.77;;;21.60;;
38162;SDS011;23977;53.078;18.248;2022-08-19T04:21:47;23.25;;;19.35;;
38162;SDS011;23977;53.078;18.248;2022-08-19T04:24:14;28.10;;;21.90;;
38162;SDS011;23977;53.078;18.248;2022-08-19T04:26:41;24.83;;;21.13;;
38162;SDS011;23977;53.078;18.248;2022-08-19T04:29:08;25.92;;;21.40;;
38162;SDS011;23977;53.078;18.248;2022-08-19T04:31:36;25.02;;;21.27;;
38162;SDS011;23977;53.078;18.248;2022-08-19T04:34:06;26.25;;;21.33;;
38162;SDS011;23977;53.078;18.248;2022-08-19T04:36:33;23.33;;;20.33;;
38162;SDS011;23977;53.078;18.248;2022-08-19T04:39:01;22.25;;;18.90;;
38162;SDS011;23977;53.078;18.248;2022-08-19T04:41:29;22.45;;;18.35;;
38162;SDS011;23977;53.078;18.248;2022-08-19T04:44:15;22.70;;;19.05;;
38162;SDS011;23977;53.078;18.248;2022-08-19T04:46:43;19.90;;;16.95;;
38162;SDS011;23977;53.078;18.248;2022-08-19T04:49:09;20.33;;;17.10;;
38162;SDS011;23977;53.078;18.248;2022-08-19T04:51:36;21.33;;;17.13;;
38162;SDS011;23977;53.078;18.248;2022-08-19T04:54:15;20.88;;;17.92;;
38162;SDS011;23977;53.078;18.248;2022-08-19T04:56:43;22.55;;;16.70;;
38162;SDS011;23977;53.078;18.248;2022-08-19T04:59:09;21.10;;;16.27;;
38162;SDS011;23977;53.078;18.248;2022-08-19T05:01:36;21.13;;;16.90;;
38162;SDS011;23977;53.078;18.248;2022-08-19T05:04:03;19.58;;;16.58;;
38162;SDS011;23977;53.078;18.248;2022-08-19T05:06:32;21.73;;;17.27;;
38162;SDS011;23977;53.078;18.248;2022-08-19T05:09:02;23.75;;;17.27;;
38162;SDS011;23977;53.078;18.248;2022-08-19T05:11:32;21.25;;;17.10;;
38162;SDS011;23977;53.078;18.248;2022-08-19T05:13:59;22.73;;;16.60;;
38162;SDS011;23977;53.078;18.248;2022-08-19T05:16:25;18.92;;;16.50;;
38162;SDS011;23977;53.078;18.248;2022-08-19T05:22:21;19.00;;;16.02;;
38162;SDS011;23977;53.078;18.248;2022-08-19T05:25:05;21.80;;;16.67;;
38162;SDS011;23977;53.078;18.248;2022-08-19T05:27:32;19.80;;;16.25;;
38162;SDS011;23977;53.078;18.248;2022-08-19T05:29:57;19.20;;;15.25;;
38162;SDS011;23977;53.078;18.248;2022-08-19T05:32:27;20.75;;;16.27;;
38162;SDS011;23977;53.078;18.248;2022-08-19T05:34:53;20.83;;;15.60;;
38162;SDS011;23977;53.078;18.248;2022-08-19T05:37:19;20.40;;;16.13;;
38162;SDS011;23977;53.078;18.248;2022-08-19T05:39:45;18.85;;;15.45;;
38162;SDS011;23977;53.078;18.248;2022-08-19T05:42:11;18.25;;;14.63;;
38162;SDS011;23977;53.078;18.248;2022-08-19T05:44:38;16.58;;;14.10;;
38162;SDS011;23977;53.078;18.248;2022-08-19T05:47:05;17.85;;;14.30;;
38162;SDS011;23977;53.078;18.248;2022-08-19T05:49:31;16.35;;;13.57;;
38162;SDS011;23977;53.078;18.248;2022-08-19T05:51:57;15.88;;;13.13;;
38162;SDS011;23977;53.078;18.248;2022-08-19T05:54:27;18.80;;;14.30;;
38162;SDS011;23977;53.078;18.248;2022-08-19T05:56:53;18.77;;;12.70;;
38162;SDS011;23977;53.078;18.248;2022-08-19T05:59:19;13.60;;;12.07;;
38162;SDS011;23977;53.078;18.248;2022-08-19T06:01:47;17.00;;;12.23;;
38162;SDS011;23977;53.078;18.248;2022-08-19T06:04:15;15.63;;;11.73;;
38162;SDS011;23977;53.078;18.248;2022-08-19T06:06:44;17.88;;;12.05;;
38162;SDS011;23977;53.078;18.248;2022-08-19T06:09:10;16.80;;;11.88;;
38162;SDS011;23977;53.078;18.248;2022-08-19T06:11:40;14.98;;;11.05;;
38162;SDS011;23977;53.078;18.248;2022-08-19T06:14:10;14.70;;;11.07;;
38162;SDS011;23977;53.078;18.248;2022-08-19T06:16:40;12.07;;;9.80;;
38162;SDS011;23977;53.078;18.248;2022-08-19T06:19:07;22.35;;;18.73;;
38162;SDS011;23977;53.078;18.248;2022-08-19T06:21:43;14.32;;;10.57;;
38162;SDS011;23977;53.078;18.248;2022-08-19T06:24:10;10.82;;;9.35;;
38162;SDS011;23977;53.078;18.248;2022-08-19T06:26:37;19.67;;;14.00;;
38162;SDS011;23977;53.078;18.248;2022-08-19T06:29:05;13.57;;;9.75;;
38162;SDS011;23977;53.078;18.248;2022-08-19T06:31:32;11.52;;;9.10;;
38162;SDS011;23977;53.078;18.248;2022-08-19T06:34:04;13.45;;;9.40;;
38162;SDS011;23977;53.078;18.248;2022-08-19T06:36:32;17.67;;;9.98;;
38162;SDS011;23977;53.078;18.248;2022-08-19T06:38:59;13.73;;;9.35;;
38162;SDS011;23977;53.078;18.248;2022-08-19T06:41:27;13.10;;;9.75;;
38162;SDS011;23977;53.078;18.248;2022-08-19T06:43:54;11.85;;;8.90;;
38162;SDS011;23977;53.078;18.248;2022-08-19T06:46:20;11.55;;;9.20;;
38162;SDS011;23977;53.078;18.248;2022-08-19T06:48:46;12.25;;;9.27;;
38162;SDS011;23977;53.078;18.248;2022-08-19T06:51:16;11.68;;;9.20;;
38162;SDS011;23977;53.078;18.248;2022-08-19T06:56:09;26.55;;;18.50;;
38162;SDS011;23977;53.078;18.248;2022-08-19T06:58:34;11.63;;;9.38;;
38162;SDS011;23977;53.078;18.248;2022-08-19T07:01:03;13.50;;;9.00;;
38162;SDS011;23977;53.078;18.248;2022-08-19T07:03:30;12.63;;;8.60;;
38162;SDS011;23977;53.078;18.248;2022-08-19T07:05:57;11.25;;;9.60;;
38162;SDS011;23977;53.078;18.248;2022-08-19T07:08:24;11.98;;;9.40;;
38162;SDS011;23977;53.078;18.248;2022-08-19T07:10:52;12.32;;;8.50;;
38162;SDS011;23977;53.078;18.248;2022-08-19T07:13:19;11.15;;;8.32;;
38162;SDS011;23977;53.078;18.248;2022-08-19T07:15:44;11.25;;;8.25;;
38162;SDS011;23977;53.078;18.248;2022-08-19T07:18:12;12.38;;;7.97;;
38162;SDS011;23977;53.078;18.248;2022-08-19T07:20:39;12.13;;;7.97;;
38162;SDS011;23977;53.078;18.248;2022-08-19T07:23:06;11.73;;;8.73;;
38162;SDS011;23977;53.078;18.248;2022-08-19T07:25:40;12.68;;;8.40;;
38162;SDS011;23977;53.078;18.248;2022-08-19T07:28:06;11.60;;;7.38;;
38162;SDS011;23977;53.078;18.248;2022-08-19T07:30:38;11.38;;;7.55;;
38162;SDS011;23977;53.078;18.248;2022-08-19T07:33:06;13.13;;;8.52;;
38162;SDS011;23977;53.078;18.248;2022-08-19T07:35:31;9.55;;;7.95;;
38162;SDS011;23977;53.078;18.248;2022-08-19T07:37:57;10.20;;;7.30;;
38162;SDS011;23977;53.078;18.248;2022-08-19T07:40:23;11.35;;;8.40;;
38162;SDS011;23977;53.078;18.248;2022-08-19T07:42:49;11.30;;;7.65;;
38162;SDS011;23977;53.078;18.248;2022-08-19T07:45:15;9.00;;;7.75;;
38162;SDS011;23977;53.078;18.248;2022-08-19T07:47:41;12.73;;;8.93;;
38162;SDS011;23977;53.078;18.248;2022-08-19T07:50:09;115.68;;;73.28;;
38162;SDS011;23977;53.078;18.248;2022-08-19T07:52:36;10.20;;;7.05;;
38162;SDS011;23977;53.078;18.248;2022-08-19T07:55:05;14.02;;;8.07;;
38162;SDS011;23977;53.078;18.248;2022-08-19T07:57:31;28.67;;;19.25;;
38162;SDS011;23977;53.078;18.248;2022-08-19T07:59:56;13.15;;;7.68;;
38162;SDS011;23977;53.078;18.248;2022-08-19T08:02:22;16.60;;;8.77;;
38162;SDS011;23977;53.078;18.248;2022-08-19T08:04:47;14.50;;;7.72;;
38162;SDS011;23977;53.078;18.248;2022-08-19T08:07:32;12.30;;;6.30;;
38162;SDS011;23977;53.078;18.248;2022-08-19T08:10:16;16.00;;;8.07;;
38162;SDS011;23977;53.078;18.248;2022-08-19T08:12:41;8.77;;;6.10;;
38162;SDS011;23977;53.078;18.248;2022-08-19T08:15:09;11.02;;;6.38;;
38162;SDS011;23977;53.078;18.248;2022-08-19T08:17:35;13.77;;;6.38;;
38162;SDS011;23977;53.078;18.248;2022-08-19T08:20:03;10.90;;;6.32;;
38162;SDS011;23977;53.078;18.248;2022-08-19T08:22:28;8.13;;;6.13;;
38162;SDS011;23977;53.078;18.248;2022-08-19T08:25:15;11.85;;;6.22;;
38162;SDS011;23977;53.078;18.248;2022-08-19T08:27:42;10.10;;;5.82;;
38162;SDS011;23977;53.078;18.248;2022-08-19T08:30:09;13.00;;;6.00;;
38162;SDS011;23977;53.078;18.248;2022-08-19T08:32:35;10.73;;;6.78;;
38162;SDS011;23977;53.078;18.248;2022-08-19T08:35:03;20.50;;;11.75;;
38162;SDS011;23977;53.078;18.248;2022-08-19T08:37:28;9.60;;;6.00;;
38162;SDS011;23977;53.078;18.248;2022-08-19T08:39:54;10.85;;;5.80;;
38162;SDS011;23977;53.078;18.248;2022-08-19T08:42:21;11.65;;;6.10;;
38162;SDS011;23977;53.078;18.248;2022-08-19T08:44:59;9.40;;;5.82;;
38162;SDS011;23977;53.078;18.248;2022-08-19T08:47:26;11.48;;;7.60;;
38162;SDS011;23977;53.078;18.248;2022-08-19T08:49:55;10.25;;;5.82;;
38162;SDS011;23977;53.078;18.248;2022-08-19T08:52:25;18.70;;;8.77;;
38162;SDS011;23977;53.078;18.248;2022-08-19T08:54:53;8.98;;;6.07;;
38162;SDS011;23977;53.078;18.248;2022-08-19T08:57:22;9.65;;;5.00;;
38162;SDS011;23977;53.078;18.248;2022-08-19T08:59:49;9.13;;;5.78;;
38162;SDS011;23977;53.078;18.248;2022-08-19T09:02:17;7.57;;;4.82;;
38162;SDS011;23977;53.078;18.248;2022-08-19T09:04:43;8.93;;;5.38;;
38162;SDS011;23977;53.078;18.248;2022-08-19T09:09:38;9.57;;;5.40;;
38162;SDS011;23977;53.078;18.248;2022-08-19T09:12:08;8.70;;;5.30;;
38162;SDS011;23977;53.078;18.248;2022-08-19T09:14:55;9.38;;;5.32;;
38162;SDS011;23977;53.078;18.248;2022-08-19T09:17:23;7.43;;;5.30;;
38162;SDS011;23977;53.078;18.248;2022-08-19T09:22:26;9.10;;;5.30;;
38162;SDS011;23977;53.078;18.248;2022-08-19T09:24:52;7.80;;;5.60;;
38162;SDS011;23977;53.078;18.248;2022-08-19T09:27:18;9.90;;;5.60;;
38162;SDS011;23977;53.078;18.248;2022-08-19T09:32:09;8.52;;;5.82;;
38162;SDS011;23977;53.078;18.248;2022-08-19T09:34:35;9.60;;;5.97;;
38162;SDS011;23977;53.078;18.248;2022-08-19T09:37:00;9.18;;;5.93;;
38162;SDS011;23977;53.078;18.248;2022-08-19T09:39:26;10.13;;;5.97;;
38162;SDS011;23977;53.078;18.248;2022-08-19T09:41:53;9.82;;;5.75;;
38162;SDS011;23977;53.078;18.248;2022-08-19T09:44:19;10.20;;;6.20;;
38162;SDS011;23977;53.078;18.248;2022-08-19T09:46:45;7.85;;;5.85;;
38162;SDS011;23977;53.078;18.248;2022-08-19T09:49:12;9.75;;;6.13;;
38162;SDS011;23977;53.078;18.248;2022-08-19T09:51:38;10.07;;;6.18;;
38162;SDS011;23977;53.078;18.248;2022-08-19T09:54:04;9.43;;;5.82;;
38162;SDS011;23977;53.078;18.248;2022-08-19T09:56:31;7.68;;;6.30;;
38162;SDS011;23977;53.078;18.248;2022-08-19T09:58:58;12.02;;;6.50;;
38162;SDS011;23977;53.078;18.248;2022-08-19T10:01:25;11.40;;;8.90;;
38162;SDS011;23977;53.078;18.248;2022-08-19T10:09:14;11.25;;;5.78;;
38162;SDS011;23977;53.078;18.248;2022-08-19T10:11:40;10.68;;;5.95;;
38162;SDS011;23977;53.078;18.248;2022-08-19T10:14:06;11.07;;;6.15;;
38162;SDS011;23977;53.078;18.248;2022-08-19T10:16:32;8.32;;;6.22;;
38162;SDS011;23977;53.078;18.248;2022-08-19T10:18:58;9.00;;;6.10;;
38162;SDS011;23977;53.078;18.248;2022-08-19T10:21:27;8.82;;;5.85;;
38162;SDS011;23977;53.078;18.248;2022-08-19T10:23:55;9.48;;;6.10;;
38162;SDS011;23977;53.078;18.248;2022-08-19T10:26:23;13.60;;;6.68;;
38162;SDS011;23977;53.078;18.248;2022-08-19T10:28:49;7.43;;;5.88;;
38162;SDS011;23977;53.078;18.248;2022-08-19T10:31:16;11.00;;;6.20;;
38162;SDS011;23977;53.078;18.248;2022-08-19T10:33:42;10.95;;;6.63;;
38162;SDS011;23977;53.078;18.248;2022-08-19T10:36:12;11.43;;;6.68;;
38162;SDS011;23977;53.078;18.248;2022-08-19T10:38:43;9.93;;;6.43;;
38162;SDS011;23977;53.078;18.248;2022-08-19T10:41:11;10.32;;;6.20;;
38162;SDS011;23977;53.078;18.248;2022-08-19T10:43:36;8.98;;;6.40;;
38162;SDS011;23977;53.078;18.248;2022-08-19T10:46:04;10.48;;;6.20;;
38162;SDS011;23977;53.078;18.248;2022-08-19T10:48:31;19.52;;;16.13;;
38162;SDS011;23977;53.078;18.248;2022-08-19T10:50:56;10.55;;;7.28;;
38162;SDS011;23977;53.078;18.248;2022-08-19T10:53:40;10.77;;;6.53;;
38162;SDS011;23977;53.078;18.248;2022-08-19T10:56:06;10.77;;;6.55;;
38162;SDS011;23977;53.078;18.248;2022-08-19T10:58:50;14.00;;;6.50;;
38162;SDS011;23977;53.078;18.248;2022-08-19T11:01:16;10.15;;;6.47;;
38162;SDS011;23977;53.078;18.248;2022-08-19T11:03:41;11.68;;;6.65;;
38162;SDS011;23977;53.078;18.248;2022-08-19T11:06:07;11.30;;;6.65;;
38162;SDS011;23977;53.078;18.248;2022-08-19T11:08:33;12.70;;;6.70;;
38162;SDS011;23977;53.078;18.248;2022-08-19T11:11:00;9.68;;;6.50;;
38162;SDS011;23977;53.078;18.248;2022-08-19T11:13:28;10.60;;;6.60;;
38162;SDS011;23977;53.078;18.248;2022-08-19T11:15:58;9.82;;;6.43;;
38162;SDS011;23977;53.078;18.248;2022-08-19T11:18:23;9.77;;;6.60;;
38162;SDS011;23977;53.078;18.248;2022-08-19T11:20:49;12.68;;;6.95;;
38162;SDS011;23977;53.078;18.248;2022-08-19T11:23:14;10.70;;;6.53;;
38162;SDS011;23977;53.078;18.248;2022-08-19T11:25:40;11.52;;;6.40;;
38162;SDS011;23977;53.078;18.248;2022-08-19T11:28:05;10.98;;;6.45;;
38162;SDS011;23977;53.078;18.248;2022-08-19T11:30:31;9.70;;;6.60;;
38162;SDS011;23977;53.078;18.248;2022-08-19T11:32:58;31.00;;;23.20;;
38162;SDS011;23977;53.078;18.248;2022-08-19T11:35:26;11.52;;;6.60;;
38162;SDS011;23977;53.078;18.248;2022-08-19T11:37:51;10.45;;;6.30;;
38162;SDS011;23977;53.078;18.248;2022-08-19T11:40:17;11.82;;;6.85;;
38162;SDS011;23977;53.078;18.248;2022-08-19T11:42:43;10.90;;;6.30;;
38162;SDS011;23977;53.078;18.248;2022-08-19T11:45:21;10.77;;;6.15;;
38162;SDS011;23977;53.078;18.248;2022-08-19T11:47:47;14.02;;;6.60;;
38162;SDS011;23977;53.078;18.248;2022-08-19T11:50:14;14.68;;;6.55;;
38162;SDS011;23977;53.078;18.248;2022-08-19T11:52:39;12.00;;;6.75;;
38162;SDS011;23977;53.078;18.248;2022-08-19T11:55:05;12.85;;;6.75;;
38162;SDS011;23977;53.078;18.248;2022-08-19T11:57:31;9.95;;;6.20;;
38162;SDS011;23977;53.078;18.248;2022-08-19T11:59:56;10.85;;;6.95;;
38162;SDS011;23977;53.078;18.248;2022-08-19T12:02:22;9.15;;;6.30;;
38162;SDS011;23977;53.078;18.248;2022-08-19T12:04:48;14.15;;;8.68;;
38162;SDS011;23977;53.078;18.248;2022-08-19T12:07:14;10.45;;;7.05;;
38162;SDS011;23977;53.078;18.248;2022-08-19T12:09:40;14.05;;;7.30;;
38162;SDS011;23977;53.078;18.248;2022-08-19T12:12:08;11.38;;;6.32;;
38162;SDS011;23977;53.078;18.248;2022-08-19T12:14:34;12.50;;;6.22;;
38162;SDS011;23977;53.078;18.248;2022-08-19T12:16:59;13.45;;;6.30;;
38162;SDS011;23977;53.078;18.248;2022-08-19T12:19:25;12.32;;;6.57;;
38162;SDS011;23977;53.078;18.248;2022-08-19T12:21:51;12.90;;;6.28;;
38162;SDS011;23977;53.078;18.248;2022-08-19T12:24:18;10.45;;;6.10;;
38162;SDS011;23977;53.078;18.248;2022-08-19T12:26:48;10.63;;;6.18;;
38162;SDS011;23977;53.078;18.248;2022-08-19T12:29:13;11.27;;;6.53;;
38162;SDS011;23977;53.078;18.248;2022-08-19T12:31:39;14.70;;;6.57;;
38162;SDS011;23977;53.078;18.248;2022-08-19T12:34:04;13.90;;;6.50;;
38162;SDS011;23977;53.078;18.248;2022-08-19T12:36:30;13.52;;;6.47;;
38162;SDS011;23977;53.078;18.248;2022-08-19T12:38:57;13.85;;;6.50;;
38162;SDS011;23977;53.078;18.248;2022-08-19T12:41:22;15.48;;;6.80;;
38162;SDS011;23977;53.078;18.248;2022-08-19T12:43:48;11.18;;;6.47;;
38162;SDS011;23977;53.078;18.248;2022-08-19T12:46:15;10.55;;;6.40;;
38162;SDS011;23977;53.078;18.248;2022-08-19T12:48:41;11.82;;;6.20;;
38162;SDS011;23977;53.078;18.248;2022-08-19T12:51:07;14.02;;;7.03;;
38162;SDS011;23977;53.078;18.248;2022-08-19T12:53:34;15.05;;;6.82;;
38162;SDS011;23977;53.078;18.248;2022-08-19T12:55:59;11.65;;;7.00;;
38162;SDS011;23977;53.078;18.248;2022-08-19T12:58:25;13.13;;;6.43;;
38162;SDS011;23977;53.078;18.248;2022-08-19T13:00:51;16.60;;;7.85;;
38162;SDS011;23977;53.078;18.248;2022-08-19T13:03:16;10.35;;;6.30;;
38162;SDS011;23977;53.078;18.248;2022-08-19T13:05:41;9.77;;;6.22;;
38162;SDS011;23977;53.078;18.248;2022-08-19T13:08:07;12.68;;;6.45;;
38162;SDS011;23977;53.078;18.248;2022-08-19T13:10:34;14.20;;;6.50;;
38162;SDS011;23977;53.078;18.248;2022-08-19T13:13:00;14.48;;;5.88;;
38162;SDS011;23977;53.078;18.248;2022-08-19T13:15:27;14.02;;;5.38;;
38162;SDS011;23977;53.078;18.248;2022-08-19T13:17:53;13.75;;;5.57;;
38162;SDS011;23977;53.078;18.248;2022-08-19T13:20:21;15.15;;;6.93;;
38162;SDS011;23977;53.078;18.248;2022-08-19T13:22:47;12.27;;;5.88;;
38162;SDS011;23977;53.078;18.248;2022-08-19T13:25:14;13.35;;;5.53;;
38162;SDS011;23977;53.078;18.248;2022-08-19T13:27:41;16.08;;;6.00;;
38162;SDS011;23977;53.078;18.248;2022-08-19T13:30:08;12.73;;;5.80;;
38162;SDS011;23977;53.078;18.248;2022-08-19T13:32:52;13.32;;;6.03;;
38162;SDS011;23977;53.078;18.248;2022-08-19T13:35:37;13.25;;;5.25;;
38162;SDS011;23977;53.078;18.248;2022-08-19T13:38:02;11.50;;;5.70;;
38162;SDS011;23977;53.078;18.248;2022-08-19T13:40:30;13.80;;;5.95;;
38162;SDS011;23977;53.078;18.248;2022-08-19T13:42:56;14.93;;;5.75;;
38162;SDS011;23977;53.078;18.248;2022-08-19T13:45:23;12.45;;;5.57;;
38162;SDS011;23977;53.078;18.248;2022-08-19T13:47:50;12.52;;;5.50;;
38162;SDS011;23977;53.078;18.248;2022-08-19T13:50:18;11.85;;;5.70;;
38162;SDS011;23977;53.078;18.248;2022-08-19T13:52:44;12.02;;;5.30;;
38162;SDS011;23977;53.078;18.248;2022-08-19T13:55:10;10.85;;;5.55;;
38162;SDS011;23977;53.078;18.248;2022-08-19T13:57:36;12.57;;;5.43;;
38162;SDS011;23977;53.078;18.248;2022-08-19T14:00:05;11.15;;;5.55;;
38162;SDS011;23977;53.078;18.248;2022-08-19T14:02:31;14.85;;;5.97;;
38162;SDS011;23977;53.078;18.248;2022-08-19T14:04:56;10.05;;;5.47;;
38162;SDS011;23977;53.078;18.248;2022-08-19T14:07:23;12.98;;;5.43;;
38162;SDS011;23977;53.078;18.248;2022-08-19T14:09:49;13.15;;;5.70;;
38162;SDS011;23977;53.078;18.248;2022-08-19T14:12:18;11.82;;;5.40;;
38162;SDS011;23977;53.078;18.248;2022-08-19T14:14:43;14.13;;;5.60;;
38162;SDS011;23977;53.078;18.248;2022-08-19T14:17:09;11.30;;;5.43;;
38162;SDS011;23977;53.078;18.248;2022-08-19T14:19:35;11.73;;;5.60;;
38162;SDS011;23977;53.078;18.248;2022-08-19T14:22:01;13.68;;;5.20;;
38162;SDS011;23977;53.078;18.248;2022-08-19T14:24:26;10.20;;;4.93;;
38162;SDS011;23977;53.078;18.248;2022-08-19T14:26:52;10.68;;;5.25;;
38162;SDS011;23977;53.078;18.248;2022-08-19T14:29:18;13.65;;;5.32;;
38162;SDS011;23977;53.078;18.248;2022-08-19T14:31:43;10.48;;;5.15;;
38162;SDS011;23977;53.078;18.248;2022-08-19T14:34:09;11.50;;;5.20;;
38162;SDS011;23977;53.078;18.248;2022-08-19T14:36:35;18.15;;;5.35;;
38162;SDS011;23977;53.078;18.248;2022-08-19T14:39:01;11.95;;;5.25;;
38162;SDS011;23977;53.078;18.248;2022-08-19T14:41:27;11.43;;;5.30;;
38162;SDS011;23977;53.078;18.248;2022-08-19T14:43:53;11.57;;;5.10;;
38162;SDS011;23977;53.078;18.248;2022-08-19T14:46:20;14.75;;;5.10;;
38162;SDS011;23977;53.078;18.248;2022-08-19T14:48:46;12.65;;;4.90;;
38162;SDS011;23977;53.078;18.248;2022-08-19T14:51:12;12.07;;;5.07;;
38162;SDS011;23977;53.078;18.248;2022-08-19T14:53:39;14.32;;;5.10;;
38162;SDS011;23977;53.078;18.248;2022-08-19T14:56:09;12.35;;;4.97;;
38162;SDS011;23977;53.078;18.248;2022-08-19T14:58:35;10.48;;;4.65;;
38162;SDS011;23977;53.078;18.248;2022-08-19T15:01:00;10.75;;;4.93;;
38162;SDS011;23977;53.078;18.248;2022-08-19T15:03:27;9.73;;;4.65;;
38162;SDS011;23977;53.078;18.248;2022-08-19T15:05:53;9.05;;;4.93;;
38162;SDS011;23977;53.078;18.248;2022-08-19T15:08:18;12.15;;;5.05;;
38162;SDS011;23977;53.078;18.248;2022-08-19T15:10:44;11.35;;;4.95;;